sensor_id;sensor_type;location;lat;lon;timestamp;pressure;altitude;pressure_sealevel;temperature;humidity
21153;BME280;10734;44.792;20.482;2023-04-08T07:48:04;100288.00;;;9.90;nan
21153;BME280;10734;44.792;20.482;2023-04-08T07:50:31;100294.25;;;9.35;nan
21153;BME280;10734;44.792;20.482;2023-04-08T07:53:00;100299.75;;;9.13;nan
21153;BME280;10734;44.792;20.482;2023-04-08T07:55:37;100295.41;;;9.11;nan
21153;BME280;10734;44.792;20.482;2023-04-08T07:58:07;100299.75;;;8.94;nan
21153;BME280;10734;44.792;20.482;2023-04-08T08:27:53;100307.63;;;10.28;nan
21153;BME280;10734;44.792;20.482;2023-04-08T08:30:21;100304.06;;;10.28;nan
21153;BME280;10734;44.792;20.482;2023-04-08T08:32:49;100304.44;;;10.20;nan
21153;BME280;10734;44.792;20.482;2023-04-08T08:35:21;100302.03;;;10.50;nan
21153;BME280;10734;44.792;20.482;2023-04-08T08:37:50;100312.81;;;10.83;nan
21153;BME280;10734;44.792;20.482;2023-04-08T08:40:17;100307.59;;;10.98;nan
21153;BME280;10734;44.792;20.482;2023-04-08T08:42:51;100304.25;;;10.93;nan
21153;BME280;10734;44.792;20.482;2023-04-08T08:45:19;100300.72;;;10.23;nan
21153;BME280;10734;44.792;20.482;2023-04-08T08:47:48;100301.50;;;10.07;nan
21153;BME280;10734;44.792;20.482;2023-04-08T08:50:18;100306.88;;;10.44;nan
21153;BME280;10734;44.792;20.482;2023-04-08T08:52:50;100301.38;;;10.62;nan
21153;BME280;10734;44.792;20.482;2023-04-08T08:55:20;100298.22;;;10.54;nan
21153;BME280;10734;44.792;20.482;2023-04-08T08:57:51;100300.19;;;10.51;nan
21153;BME280;10734;44.792;20.482;2023-04-08T09:00:17;100299.88;;;10.74;nan
21153;BME280;10734;44.792;20.482;2023-04-08T09:02:45;100299.25;;;11.02;nan
21153;BME280;10734;44.792;20.482;2023-04-08T09:05:12;100302.16;;;11.15;nan
21153;BME280;10734;44.792;20.482;2023-04-08T09:07:38;100306.03;;;11.09;nan
21153;BME280;10734;44.792;20.482;2023-04-08T09:10:09;100302.25;;;10.80;nan
21153;BME280;10734;44.792;20.482;2023-04-08T09:12:37;100308.19;;;10.87;nan
21153;BME280;10734;44.792;20.482;2023-04-08T09:15:18;100304.06;;;10.62;nan
21153;BME280;10734;44.792;20.482;2023-04-08T09:17:45;100309.78;;;9.85;nan
21153;BME280;10734;44.792;20.482;2023-04-08T10:38:51;100329.00;;;11.17;nan
21153;BME280;10734;44.792;20.482;2023-04-08T10:41:22;100335.09;;;11.20;nan
21153;BME280;10734;44.792;20.482;2023-04-08T10:43:50;100337.78;;;11.53;nan
21153;BME280;10734;44.792;20.482;2023-04-08T10:46:17;100335.88;;;11.71;nan
21153;BME280;10734;44.792;20.482;2023-04-08T10:48:48;100332.66;;;11.80;nan
21153;BME280;10734;44.792;20.482;2023-04-08T10:51:31;100334.31;;;11.67;nan
21153;BME280;10734;44.792;20.482;2023-04-08T10:54:12;100341.19;;;11.57;nan
21153;BME280;10734;44.792;20.482;2023-04-08T10:56:48;100335.94;;;11.05;nan
21153;BME280;10734;44.792;20.482;2023-04-08T10:59:25;100330.84;;;11.16;nan
21153;BME280;10734;44.792;20.482;2023-04-08T11:01:52;100335.81;;;11.24;nan
21153;BME280;10734;44.792;20.482;2023-04-08T11:04:21;100333.69;;;10.97;nan
21153;BME280;10734;44.792;20.482;2023-04-08T11:06:49;100333.00;;;11.09;nan
21153;BME280;10734;44.792;20.482;2023-04-08T11:09:15;100332.63;;;11.00;nan
21153;BME280;10734;44.792;20.482;2023-04-08T11:11:44;100341.28;;;10.89;nan
21153;BME280;10734;44.792;20.482;2023-04-08T11:14:15;100339.25;;;10.77;nan
21153;BME280;10734;44.792;20.482;2023-04-08T11:16:49;100337.03;;;10.68;nan
21153;BME280;10734;44.792;20.482;2023-04-08T11:19:17;100334.66;;;10.61;nan
21153;BME280;10734;44.792;20.482;2023-04-08T11:21:45;100335.91;;;10.54;nan
21153;BME280;10734;44.792;20.482;2023-04-08T11:24:15;100337.50;;;10.58;nan
21153;BME280;10734;44.792;20.482;2023-04-08T11:26:43;100332.22;;;10.57;nan
21153;BME280;10734;44.792;20.482;2023-04-08T11:29:10;100337.66;;;10.55;nan
21153;BME280;10734;44.792;20.482;2023-04-08T11:31:45;100338.31;;;10.43;nan
21153;BME280;10734;44.792;20.482;2023-04-08T11:34:24;100349.63;;;10.50;nan
21153;BME280;10734;44.792;20.482;2023-04-08T11:36:53;100322.16;;;10.24;nan
21153;BME280;10734;44.792;20.482;2023-04-08T11:39:23;100335.31;;;10.13;nan
21153;BME280;10734;44.792;20.482;2023-04-08T11:41:53;100340.41;;;10.00;nan
21153;BME280;10734;44.792;20.482;2023-04-08T11:44:28;100337.88;;;9.78;nan
21153;BME280;10734;44.792;20.482;2023-04-08T12:23:45;100319.47;;;10.43;nan
21153;BME280;10734;44.792;20.482;2023-04-08T12:26:12;100317.38;;;10.48;nan
21153;BME280;10734;44.792;20.482;2023-04-08T12:28:42;100319.72;;;10.89;nan
21153;BME280;10734;44.792;20.482;2023-04-08T12:31:09;100325.88;;;11.42;nan
21153;BME280;10734;44.792;20.482;2023-04-08T12:33:36;100317.66;;;11.92;nan
21153;BME280;10734;44.792;20.482;2023-04-08T12:36:03;100317.59;;;12.24;nan
21153;BME280;10734;44.792;20.482;2023-04-08T12:38:30;100319.78;;;12.47;nan
21153;BME280;10734;44.792;20.482;2023-04-08T12:40:58;100321.84;;;12.58;nan
21153;BME280;10734;44.792;20.482;2023-04-08T12:43:27;100309.50;;;12.68;nan
21153;BME280;10734;44.792;20.482;2023-04-08T12:45:54;100302.53;;;12.94;nan
21153;BME280;10734;44.792;20.482;2023-04-08T12:48:22;100312.66;;;13.19;nan
21153;BME280;10734;44.792;20.482;2023-04-08T12:50:50;100306.19;;;13.22;nan
21153;BME280;10734;44.792;20.482;2023-04-08T12:53:17;100307.72;;;13.55;nan
21153;BME280;10734;44.792;20.482;2023-04-08T12:55:44;100303.41;;;13.52;nan
21153;BME280;10734;44.792;20.482;2023-04-08T12:58:13;100302.97;;;13.72;nan
21153;BME280;10734;44.792;20.482;2023-04-08T13:00:45;100298.91;;;13.65;nan
21153;BME280;10734;44.792;20.482;2023-04-08T13:03:13;100300.78;;;13.22;nan
21153;BME280;10734;44.792;20.482;2023-04-08T13:05:43;100296.94;;;13.40;nan
21153;BME280;10734;44.792;20.482;2023-04-08T13:08:10;100291.81;;;13.36;nan
21153;BME280;10734;44.792;20.482;2023-04-08T13:10:38;100287.53;;;13.60;nan
21153;BME280;10734;44.792;20.482;2023-04-08T13:13:07;100294.09;;;12.99;nan
21153;BME280;10734;44.792;20.482;2023-04-08T13:15:34;100291.63;;;12.21;nan
21153;BME280;10734;44.792;20.482;2023-04-08T13:18:02;100288.47;;;12.73;nan
21153;BME280;10734;44.792;20.482;2023-04-08T13:20:30;100295.94;;;13.13;nan
21153;BME280;10734;44.792;20.482;2023-04-08T13:22:57;100288.25;;;13.35;nan
21153;BME280;10734;44.792;20.482;2023-04-08T13:25:24;100282.31;;;13.57;nan
21153;BME280;10734;44.792;20.482;2023-04-08T13:27:51;100283.88;;;13.47;nan
21153;BME280;10734;44.792;20.482;2023-04-08T13:30:18;100282.00;;;13.62;nan
21153;BME280;10734;44.792;20.482;2023-04-08T13:32:45;100278.16;;;13.66;nan
21153;BME280;10734;44.792;20.482;2023-04-08T13:35:13;100278.69;;;13.71;nan
21153;BME280;10734;44.792;20.482;2023-04-08T13:37:39;100280.59;;;13.28;nan
21153;BME280;10734;44.792;20.482;2023-04-08T13:40:07;100280.34;;;12.59;nan
21153;BME280;10734;44.792;20.482;2023-04-08T13:42:35;100284.69;;;12.62;nan
21153;BME280;10734;44.792;20.482;2023-04-08T13:45:03;100284.34;;;12.68;nan
21153;BME280;10734;44.792;20.482;2023-04-08T13:47:31;100281.03;;;12.63;nan
21153;BME280;10734;44.792;20.482;2023-04-08T13:49:59;100284.06;;;12.42;nan
21153;BME280;10734;44.792;20.482;2023-04-08T13:52:28;100278.66;;;12.12;nan
21153;BME280;10734;44.792;20.482;2023-04-08T13:54:54;100284.59;;;11.71;nan
21153;BME280;10734;44.792;20.482;2023-04-08T13:57:21;100278.09;;;11.59;nan
21153;BME280;10734;44.792;20.482;2023-04-08T13:59:48;100286.34;;;11.41;nan
21153;BME280;10734;44.792;20.482;2023-04-08T14:02:15;100288.91;;;11.10;nan
21153;BME280;10734;44.792;20.482;2023-04-08T14:04:42;100285.06;;;10.99;nan
